Greenfield Center, New York
Current Conditions -  °F | °C
As of 10:53 AM on Friday 28 Nov 2014 (Local Time) from KGFL Reporting Station
Clear Clear  
Wind Chill: -2°   Ceiling: Unl
Heat Index: -2°   Visibility: 10mi
Dew Point: -7°   Wind: 0mph
Humidity: 69%   Direction: NA
Pressure: 30.13"   Gusts: NA
Location:  43.13°N, 73.85°W
Report Text: KGFL 281553Z AUTO 00000KT 10SM CLR M02/M07 A3013 RMK AO2 SLP211 T10221072
Loading
Personal Weather Stations






























Interactive Weather Map New forecast layout! Learn more

10-Day Weather Forecast

Advertisements
Track Severe Weather on mobile